AAL2902 KDFW-KMIA
Flight info
| Callsign | AAL2902 |
|---|---|
| Flight time | 2h 9m |
| Altitude | 35000 |
| Route | MRSSH3 ZALEA HRV Q105 BLVNS Y290 DOWRY FROGZ5 |
| Aircraft | A321/M-SDE3GHIRWXYZ/B2L |
Departure
| Time | 2026-05-07 23:55 |
|---|---|
| Airport | Dallas Fort Worth International Airport (KDFW) |
Arrival
| Time | 2026-05-08 02:04 |
|---|---|
| Airport | Miami International Airport (KMIA) |
| Time | Latitude | Longitude | Altitude | Speed | Heading |
|---|---|---|---|---|---|
| 2026-05-07 23:45 | 32.89841 | -97.03442 | 587 ft | 3 kts | 259° |
| 2026-05-07 23:45 | 32.89849 | -97.03416 | 587 ft | 4 kts | 211° |
| 2026-05-07 23:45 | 32.89871 | -97.03414 | 587 ft | 4 kts | 156° |
| 2026-05-07 23:46 | 32.89890 | -97.03425 | 587 ft | 0 kts | 159° |
| 2026-05-07 23:48 | 32.89889 | -97.03424 | 587 ft | 1 kts | 158° |
| 2026-05-07 23:48 | 32.89882 | -97.03418 | 587 ft | 2 kts | 142° |
| 2026-05-07 23:48 | 32.89873 | -97.03395 | 587 ft | 4 kts | 102° |
| 2026-05-07 23:48 | 32.89882 | -97.03356 | 586 ft | 6 kts | 58° |
| 2026-05-07 23:49 | 32.89927 | -97.03322 | 586 ft | 10 kts | 15° |
| 2026-05-07 23:49 | 32.90008 | -97.03316 | 586 ft | 13 kts | 1° |
| 2026-05-07 23:49 | 32.90106 | -97.03316 | 585 ft | 14 kts | 0° |
| 2026-05-07 23:49 | 32.90210 | -97.03313 | 585 ft | 15 kts | 0° |
| 2026-05-07 23:50 | 32.90320 | -97.03312 | 585 ft | 16 kts | 0° |
| 2026-05-07 23:50 | 32.90433 | -97.03312 | 585 ft | 16 kts | 0° |
| 2026-05-07 23:50 | 32.90549 | -97.03311 | 585 ft | 17 kts | 0° |
| 2026-05-07 23:50 | 32.90670 | -97.03311 | 585 ft | 17 kts | 0° |
| 2026-05-07 23:51 | 32.90792 | -97.03310 | 585 ft | 18 kts | 0° |
| 2026-05-07 23:51 | 32.90916 | -97.03309 | 585 ft | 18 kts | 0° |
| 2026-05-07 23:51 | 32.91022 | -97.03285 | 580 ft | 16 kts | 19° |
| 2026-05-07 23:51 | 32.91097 | -97.03271 | 581 ft | 17 kts | 1° |
| 2026-05-07 23:52 | 32.91212 | -97.03273 | 581 ft | 16 kts | 360° |
| 2026-05-07 23:52 | 32.91325 | -97.03272 | 581 ft | 17 kts | 0° |
| 2026-05-07 23:52 | 32.91474 | -97.03271 | 578 ft | 15 kts | 0° |
| 2026-05-07 23:52 | 32.91531 | -97.03267 | 581 ft | 11 kts | 17° |
| 2026-05-07 23:53 | 32.91559 | -97.03184 | 575 ft | 12 kts | 89° |
| 2026-05-07 23:53 | 32.91559 | -97.03085 | 575 ft | 12 kts | 90° |
| 2026-05-07 23:53 | 32.91550 | -97.03003 | 576 ft | 8 kts | 124° |
| 2026-05-07 23:53 | 32.91504 | -97.02989 | 580 ft | 6 kts | 180° |
| 2026-05-07 23:54 | 32.91389 | -97.02989 | 577 ft | 43 kts | 180° |
| 2026-05-07 23:54 | 32.90864 | -97.02992 | 575 ft | 108 kts | 180° |
| 2026-05-07 23:54 | 32.89911 | -97.02998 | 579 ft | 160 kts | 180° |
| 2026-05-07 23:54 | 32.88693 | -97.03005 | 806 ft | 182 kts | 179° |
| 2026-05-07 23:55 | 32.87447 | -97.03002 | 1529 ft | 180 kts | 179° |
| 2026-05-07 23:55 | 32.86168 | -97.02990 | 1960 ft | 192 kts | 178° |
| 2026-05-07 23:55 | 32.84753 | -97.02976 | 2146 ft | 214 kts | 179° |
| 2026-05-07 23:55 | 32.83178 | -97.02967 | 2294 ft | 239 kts | 179° |
| 2026-05-07 23:56 | 32.81435 | -97.02965 | 2668 ft | 257 kts | 179° |
| 2026-05-07 23:56 | 32.79626 | -97.02967 | 3382 ft | 262 kts | 179° |
| 2026-05-07 23:56 | 32.77794 | -97.02975 | 4086 ft | 265 kts | 179° |
| 2026-05-07 23:56 | 32.75926 | -97.02984 | 4761 ft | 270 kts | 179° |
| 2026-05-07 23:57 | 32.74038 | -97.02951 | 5405 ft | 274 kts | 173° |
| 2026-05-07 23:57 | 32.72211 | -97.02277 | 6079 ft | 280 kts | 152° |
| 2026-05-07 23:57 | 32.70710 | -97.00769 | 6704 ft | 288 kts | 129° |
| 2026-05-07 23:57 | 32.69817 | -96.98623 | 7286 ft | 296 kts | 106° |
| 2026-05-07 23:58 | 32.69314 | -96.96242 | 7913 ft | 299 kts | 106° |
| 2026-05-07 23:58 | 32.68881 | -96.93823 | 8540 ft | 303 kts | 98° |
| 2026-05-07 23:58 | 32.68845 | -96.91337 | 9268 ft | 309 kts | 90° |
| 2026-05-07 23:58 | 32.68902 | -96.88786 | 9764 ft | 312 kts | 91° |
| 2026-05-07 23:59 | 32.68952 | -96.86185 | 10272 ft | 320 kts | 91° |
| 2026-05-07 23:59 | 32.68997 | -96.83458 | 10390 ft | 341 kts | 90° |
| 2026-05-07 23:59 | 32.69038 | -96.80561 | 10508 ft | 362 kts | 90° |
| 2026-05-07 23:59 | 32.69081 | -96.77535 | 10655 ft | 380 kts | 90° |
| 2026-05-08 00:00 | 32.69128 | -96.74325 | 11060 ft | 388 kts | 90° |
| 2026-05-08 00:00 | 32.69176 | -96.71100 | 11570 ft | 392 kts | 90° |
| 2026-05-08 00:00 | 32.69225 | -96.67847 | 12103 ft | 396 kts | 89° |
| 2026-05-08 00:00 | 32.69274 | -96.64693 | 12998 ft | 375 kts | 89° |
| 2026-05-08 00:01 | 32.69320 | -96.61597 | 13458 ft | 383 kts | 89° |
| 2026-05-08 00:01 | 32.69366 | -96.58366 | 13583 ft | 399 kts | 89° |
| 2026-05-08 00:01 | 32.69415 | -96.55020 | 13898 ft | 410 kts | 89° |
| 2026-05-08 00:01 | 32.69463 | -96.51613 | 14336 ft | 415 kts | 89° |
| 2026-05-08 00:02 | 32.69508 | -96.48166 | 14824 ft | 419 kts | 89° |
| 2026-05-08 00:02 | 32.69550 | -96.44687 | 15321 ft | 423 kts | 90° |
| 2026-05-08 00:02 | 32.69590 | -96.41178 | 15818 ft | 427 kts | 90° |
| 2026-05-08 00:02 | 32.69629 | -96.37638 | 16306 ft | 431 kts | 90° |
| 2026-05-08 00:03 | 32.69669 | -96.34062 | 16797 ft | 435 kts | 91° |
| 2026-05-08 00:03 | 32.69502 | -96.30465 | 17263 ft | 438 kts | 96° |
| 2026-05-08 00:03 | 32.69265 | -96.26836 | 17746 ft | 442 kts | 96° |
| 2026-05-08 00:03 | 32.69022 | -96.23194 | 18231 ft | 446 kts | 96° |
| 2026-05-08 00:04 | 32.68773 | -96.19510 | 18651 ft | 450 kts | 96° |
| 2026-05-08 00:04 | 32.68521 | -96.15795 | 19048 ft | 454 kts | 96° |
| 2026-05-08 00:04 | 32.68267 | -96.12040 | 19444 ft | 458 kts | 96° |
| 2026-05-08 00:04 | 32.68009 | -96.08244 | 19842 ft | 462 kts | 96° |
| 2026-05-08 00:05 | 32.67754 | -96.04472 | 20214 ft | 467 kts | 96° |
| 2026-05-08 00:05 | 32.67495 | -96.00615 | 20592 ft | 471 kts | 96° |
| 2026-05-08 00:05 | 32.67233 | -95.96724 | 20963 ft | 475 kts | 96° |
| 2026-05-08 00:05 | 32.66964 | -95.92799 | 21327 ft | 479 kts | 96° |
| 2026-05-08 00:06 | 32.66690 | -95.88841 | 21686 ft | 483 kts | 96° |
| 2026-05-08 00:06 | 32.66414 | -95.84849 | 22037 ft | 487 kts | 95° |
| 2026-05-08 00:06 | 32.66140 | -95.80832 | 22378 ft | 490 kts | 95° |
| 2026-05-08 00:06 | 32.65862 | -95.76783 | 22719 ft | 494 kts | 95° |
| 2026-05-08 00:07 | 32.65580 | -95.72701 | 23056 ft | 498 kts | 95° |
| 2026-05-08 00:07 | 32.65293 | -95.68589 | 23382 ft | 501 kts | 95° |
| 2026-05-08 00:07 | 32.64999 | -95.64453 | 23693 ft | 505 kts | 95° |
| 2026-05-08 00:07 | 32.64699 | -95.60289 | 23968 ft | 508 kts | 96° |
| 2026-05-08 00:08 | 32.64397 | -95.56100 | 24281 ft | 510 kts | 96° |
| 2026-05-08 00:08 | 32.64099 | -95.51950 | 24600 ft | 511 kts | 96° |
| 2026-05-08 00:08 | 32.63797 | -95.47745 | 24910 ft | 513 kts | 96° |
| 2026-05-08 00:08 | 32.63493 | -95.43518 | 25233 ft | 515 kts | 96° |
| 2026-05-08 00:09 | 32.63185 | -95.39288 | 25542 ft | 516 kts | 97° |
| 2026-05-08 00:09 | 32.62873 | -95.35032 | 25845 ft | 518 kts | 97° |
| 2026-05-08 00:09 | 32.62559 | -95.30762 | 26146 ft | 520 kts | 97° |
| 2026-05-08 00:09 | 32.62246 | -95.26482 | 26436 ft | 522 kts | 97° |
| 2026-05-08 00:10 | 32.61932 | -95.22188 | 26731 ft | 524 kts | 97° |
| 2026-05-08 00:10 | 32.61612 | -95.17868 | 27016 ft | 525 kts | 98° |
| 2026-05-08 00:10 | 32.61290 | -95.13553 | 27296 ft | 527 kts | 98° |
| 2026-05-08 00:10 | 32.60964 | -95.09226 | 27570 ft | 528 kts | 98° |
| 2026-05-08 00:11 | 32.60634 | -95.04877 | 27854 ft | 530 kts | 98° |
| 2026-05-08 00:11 | 32.60304 | -95.00521 | 28139 ft | 531 kts | 98° |
| 2026-05-08 00:11 | 32.59969 | -94.96142 | 28423 ft | 533 kts | 99° |
| 2026-05-08 00:11 | 32.59638 | -94.91823 | 28646 ft | 536 kts | 99° |
| 2026-05-08 00:12 | 32.59300 | -94.87415 | 28882 ft | 538 kts | 99° |
| 2026-05-08 00:12 | 32.58958 | -94.82978 | 29139 ft | 540 kts | 99° |
| 2026-05-08 00:12 | 32.58522 | -94.78568 | 29486 ft | 536 kts | 105° |
| 2026-05-08 00:12 | 32.57653 | -94.74300 | 29859 ft | 528 kts | 114° |
| 2026-05-08 00:13 | 32.56504 | -94.70193 | 30233 ft | 525 kts | 115° |
| 2026-05-08 00:13 | 32.55367 | -94.66162 | 30523 ft | 524 kts | 115° |
| 2026-05-08 00:13 | 32.54207 | -94.62071 | 30824 ft | 524 kts | 115° |
| 2026-05-08 00:13 | 32.53043 | -94.57970 | 30999 ft | 526 kts | 115° |
| 2026-05-08 00:14 | 32.51873 | -94.53852 | 31123 ft | 530 kts | 115° |
| 2026-05-08 00:14 | 32.50693 | -94.49697 | 31241 ft | 534 kts | 115° |
| 2026-05-08 00:14 | 32.49507 | -94.45524 | 31459 ft | 535 kts | 115° |
| 2026-05-08 00:14 | 32.48318 | -94.41341 | 31718 ft | 535 kts | 115° |
| 2026-05-08 00:15 | 32.47131 | -94.37157 | 31975 ft | 536 kts | 115° |
| 2026-05-08 00:15 | 32.45945 | -94.32978 | 32241 ft | 536 kts | 115° |
| 2026-05-08 00:15 | 32.44758 | -94.28795 | 32507 ft | 536 kts | 115° |
| 2026-05-08 00:15 | 32.43568 | -94.24614 | 32771 ft | 536 kts | 115° |
| 2026-05-08 00:16 | 32.42373 | -94.20438 | 33029 ft | 536 kts | 115° |
| 2026-05-08 00:16 | 32.41176 | -94.16269 | 33271 ft | 536 kts | 115° |
| 2026-05-08 00:16 | 32.39973 | -94.12091 | 33497 ft | 537 kts | 115° |
| 2026-05-08 00:16 | 32.38766 | -94.07908 | 33742 ft | 537 kts | 115° |
| 2026-05-08 00:17 | 32.37575 | -94.03777 | 33990 ft | 537 kts | 115° |
| 2026-05-08 00:17 | 32.36355 | -93.99547 | 34214 ft | 537 kts | 115° |
| 2026-05-08 00:17 | 32.35148 | -93.95362 | 34417 ft | 537 kts | 115° |
| 2026-05-08 00:17 | 32.33960 | -93.91238 | 34612 ft | 538 kts | 115° |
| 2026-05-08 00:18 | 32.32755 | -93.87054 | 34804 ft | 538 kts | 115° |
| 2026-05-08 00:18 | 32.31542 | -93.82861 | 34991 ft | 538 kts | 115° |
| 2026-05-08 00:18 | 32.29104 | -93.74485 | 35033 ft | 540 kts | 115° |
| 2026-05-08 00:19 | 32.26657 | -93.66075 | 35060 ft | 541 kts | 115° |
| 2026-05-08 00:19 | 32.24206 | -93.57668 | 35060 ft | 541 kts | 115° |
| 2026-05-08 00:20 | 32.21608 | -93.49401 | 35056 ft | 534 kts | 123° |
| 2026-05-08 00:20 | 32.17702 | -93.42166 | 35060 ft | 517 kts | 137° |
| 2026-05-08 00:21 | 32.13293 | -93.35446 | 35057 ft | 518 kts | 137° |
| 2026-05-08 00:21 | 32.08902 | -93.28713 | 35068 ft | 518 kts | 137° |
| 2026-05-08 00:22 | 32.04505 | -93.21963 | 35067 ft | 519 kts | 137° |
| 2026-05-08 00:22 | 32.00106 | -93.15223 | 35070 ft | 517 kts | 137° |
| 2026-05-08 00:23 | 31.95733 | -93.08564 | 35080 ft | 517 kts | 137° |
| 2026-05-08 00:23 | 31.91333 | -93.01874 | 35078 ft | 516 kts | 137° |
| 2026-05-08 00:24 | 31.86937 | -92.95195 | 35078 ft | 516 kts | 137° |
| 2026-05-08 00:24 | 31.82539 | -92.88529 | 35080 ft | 515 kts | 137° |
| 2026-05-08 00:25 | 31.78137 | -92.81868 | 35081 ft | 515 kts | 137° |
| 2026-05-08 00:25 | 31.73736 | -92.75227 | 35064 ft | 515 kts | 137° |
| 2026-05-08 00:26 | 31.69336 | -92.68593 | 35077 ft | 515 kts | 137° |
| 2026-05-08 00:26 | 31.64930 | -92.61950 | 35077 ft | 515 kts | 137° |
| 2026-05-08 00:27 | 31.60523 | -92.55326 | 35077 ft | 515 kts | 137° |
| 2026-05-08 00:27 | 31.56112 | -92.48707 | 35077 ft | 515 kts | 137° |
| 2026-05-08 00:28 | 31.51704 | -92.42101 | 35073 ft | 515 kts | 137° |
| 2026-05-08 00:28 | 31.47293 | -92.35502 | 35068 ft | 514 kts | 137° |
| 2026-05-08 00:29 | 31.42882 | -92.28914 | 35070 ft | 513 kts | 137° |
| 2026-05-08 00:29 | 31.38501 | -92.22402 | 35076 ft | 512 kts | 137° |
| 2026-05-08 00:30 | 31.34101 | -92.15863 | 35078 ft | 511 kts | 137° |
| 2026-05-08 00:30 | 31.29703 | -92.09330 | 35071 ft | 511 kts | 137° |
| 2026-05-08 00:31 | 31.25296 | -92.02794 | 35071 ft | 511 kts | 137° |
| 2026-05-08 00:31 | 31.20900 | -91.96282 | 35059 ft | 510 kts | 137° |
| 2026-05-08 00:32 | 31.16500 | -91.89787 | 35062 ft | 509 kts | 137° |
| 2026-05-08 00:32 | 31.12105 | -91.83304 | 35056 ft | 509 kts | 137° |
| 2026-05-08 00:33 | 31.07711 | -91.76822 | 35065 ft | 509 kts | 137° |
| 2026-05-08 00:33 | 31.03306 | -91.70349 | 35062 ft | 509 kts | 137° |
| 2026-05-08 00:34 | 30.98933 | -91.63938 | 35064 ft | 508 kts | 137° |
| 2026-05-08 00:34 | 30.94509 | -91.57456 | 35034 ft | 508 kts | 137° |
| 2026-05-08 00:35 | 30.90143 | -91.51070 | 35064 ft | 507 kts | 137° |
| 2026-05-08 00:35 | 30.85746 | -91.44649 | 35067 ft | 507 kts | 137° |
| 2026-05-08 00:36 | 30.81348 | -91.38221 | 35067 ft | 507 kts | 137° |
| 2026-05-08 00:36 | 30.76953 | -91.31809 | 35064 ft | 507 kts | 137° |
| 2026-05-08 00:37 | 30.72552 | -91.25418 | 35070 ft | 507 kts | 137° |
| 2026-05-08 00:38 | 30.65928 | -91.15833 | 35063 ft | 507 kts | 137° |
| 2026-05-08 00:38 | 30.61525 | -91.09450 | 35055 ft | 507 kts | 137° |
| 2026-05-08 00:39 | 30.57108 | -91.03066 | 35060 ft | 507 kts | 137° |
| 2026-05-08 00:39 | 30.53435 | -90.97767 | 35060 ft | 507 kts | 137° |
| 2026-05-08 00:40 | 30.49018 | -90.91394 | 35051 ft | 507 kts | 137° |
| 2026-05-08 00:40 | 30.44596 | -90.85030 | 35049 ft | 507 kts | 137° |
| 2026-05-08 00:41 | 30.40168 | -90.78675 | 35055 ft | 507 kts | 137° |
| 2026-05-08 00:41 | 30.35775 | -90.72386 | 35028 ft | 507 kts | 137° |
| 2026-05-08 00:42 | 30.31311 | -90.65997 | 35039 ft | 507 kts | 137° |
| 2026-05-08 00:42 | 30.26911 | -90.59704 | 35046 ft | 507 kts | 137° |
| 2026-05-08 00:43 | 30.22467 | -90.53361 | 35047 ft | 507 kts | 137° |
| 2026-05-08 00:43 | 30.18028 | -90.47027 | 35047 ft | 507 kts | 137° |
| 2026-05-08 00:44 | 30.13595 | -90.40709 | 35043 ft | 507 kts | 137° |
| 2026-05-08 00:44 | 30.09143 | -90.34384 | 35008 ft | 507 kts | 137° |
| 2026-05-08 00:45 | 30.04693 | -90.28083 | 35026 ft | 506 kts | 137° |
| 2026-05-08 00:45 | 30.00254 | -90.21807 | 35034 ft | 506 kts | 137° |
| 2026-05-08 00:46 | 29.95803 | -90.15514 | 35035 ft | 506 kts | 137° |
| 2026-05-08 00:46 | 29.91361 | -90.09231 | 35024 ft | 505 kts | 137° |
| 2026-05-08 00:47 | 29.86906 | -90.02955 | 35025 ft | 505 kts | 137° |
| 2026-05-08 00:47 | 29.82442 | -89.96706 | 34998 ft | 505 kts | 137° |
| 2026-05-08 00:48 | 29.77914 | -89.90534 | 35023 ft | 503 kts | 138° |
| 2026-05-08 00:48 | 29.73397 | -89.84448 | 35029 ft | 503 kts | 138° |
| 2026-05-08 00:49 | 29.68868 | -89.78313 | 35036 ft | 504 kts | 138° |
| 2026-05-08 00:49 | 29.64352 | -89.72153 | 35039 ft | 503 kts | 138° |
| 2026-05-08 00:50 | 29.59835 | -89.66013 | 35037 ft | 503 kts | 138° |
| 2026-05-08 00:50 | 29.55313 | -89.59882 | 35036 ft | 503 kts | 138° |
| 2026-05-08 00:51 | 29.50791 | -89.53762 | 35021 ft | 503 kts | 138° |
| 2026-05-08 00:51 | 29.46258 | -89.47655 | 35032 ft | 502 kts | 138° |
| 2026-05-08 00:52 | 29.41728 | -89.41562 | 35042 ft | 503 kts | 138° |
| 2026-05-08 00:52 | 29.37204 | -89.35449 | 35040 ft | 503 kts | 137° |
| 2026-05-08 00:53 | 29.32681 | -89.29355 | 35039 ft | 502 kts | 138° |
| 2026-05-08 00:53 | 29.28151 | -89.23270 | 35032 ft | 502 kts | 137° |
| 2026-05-08 00:54 | 29.23606 | -89.17196 | 35018 ft | 502 kts | 137° |
| 2026-05-08 00:54 | 29.19065 | -89.11126 | 35030 ft | 502 kts | 137° |
| 2026-05-08 00:55 | 29.14528 | -89.05052 | 35039 ft | 502 kts | 137° |
| 2026-05-08 00:55 | 29.09988 | -88.98994 | 35040 ft | 502 kts | 137° |
| 2026-05-08 00:56 | 29.05442 | -88.92939 | 35041 ft | 502 kts | 137° |
| 2026-05-08 00:56 | 29.00888 | -88.86886 | 35040 ft | 502 kts | 137° |
| 2026-05-08 00:57 | 28.96365 | -88.80885 | 35032 ft | 501 kts | 137° |
| 2026-05-08 00:57 | 28.91813 | -88.74844 | 35023 ft | 501 kts | 137° |
| 2026-05-08 00:58 | 28.87270 | -88.68818 | 35028 ft | 501 kts | 137° |
| 2026-05-08 00:58 | 28.82747 | -88.62766 | 35035 ft | 501 kts | 137° |
| 2026-05-08 00:59 | 28.78251 | -88.56702 | 35039 ft | 501 kts | 137° |
| 2026-05-08 00:59 | 28.73745 | -88.50648 | 35038 ft | 501 kts | 137° |
| 2026-05-08 01:00 | 28.69217 | -88.44608 | 35038 ft | 501 kts | 137° |
| 2026-05-08 01:00 | 28.64693 | -88.38579 | 35011 ft | 501 kts | 136° |
| 2026-05-08 01:01 | 28.60160 | -88.32546 | 35029 ft | 501 kts | 137° |
| 2026-05-08 01:01 | 28.55656 | -88.26549 | 35040 ft | 501 kts | 136° |
| 2026-05-08 01:02 | 28.51129 | -88.20519 | 35038 ft | 501 kts | 136° |
| 2026-05-08 01:02 | 28.46596 | -88.14491 | 35045 ft | 501 kts | 137° |
| 2026-05-08 01:03 | 28.42038 | -88.08470 | 35038 ft | 501 kts | 136° |
| 2026-05-08 01:03 | 28.38039 | -88.01917 | 35044 ft | 512 kts | 120° |
| 2026-05-08 01:04 | 28.35602 | -87.94267 | 35046 ft | 517 kts | 111° |
| 2026-05-08 01:04 | 28.33374 | -87.86502 | 35045 ft | 517 kts | 111° |
| 2026-05-08 01:05 | 28.31115 | -87.78755 | 35054 ft | 516 kts | 112° |
| 2026-05-08 01:05 | 28.28873 | -87.71076 | 35041 ft | 516 kts | 111° |
| 2026-05-08 01:06 | 28.26635 | -87.63343 | 35042 ft | 515 kts | 111° |
| 2026-05-08 01:06 | 28.24386 | -87.55609 | 35055 ft | 515 kts | 111° |
| 2026-05-08 01:07 | 28.22137 | -87.47902 | 35039 ft | 515 kts | 111° |
| 2026-05-08 01:07 | 28.19882 | -87.40194 | 35038 ft | 515 kts | 112° |
| 2026-05-08 01:08 | 28.17616 | -87.32499 | 35033 ft | 515 kts | 111° |
| 2026-05-08 01:08 | 28.15363 | -87.24848 | 35037 ft | 515 kts | 111° |
| 2026-05-08 01:09 | 28.13101 | -87.17144 | 35039 ft | 515 kts | 112° |
| 2026-05-08 01:09 | 28.10832 | -87.09452 | 35039 ft | 515 kts | 111° |
| 2026-05-08 01:10 | 28.08554 | -87.01761 | 35039 ft | 515 kts | 112° |
| 2026-05-08 01:10 | 28.06265 | -86.94068 | 35042 ft | 515 kts | 111° |
| 2026-05-08 01:11 | 28.03984 | -86.86381 | 35049 ft | 515 kts | 111° |
| 2026-05-08 01:11 | 28.01692 | -86.78691 | 35026 ft | 515 kts | 112° |
| 2026-05-08 01:12 | 27.99403 | -86.70991 | 35041 ft | 516 kts | 111° |
| 2026-05-08 01:12 | 27.97181 | -86.63267 | 35039 ft | 516 kts | 111° |
| 2026-05-08 01:13 | 27.94976 | -86.55542 | 35035 ft | 516 kts | 111° |
| 2026-05-08 01:13 | 27.92757 | -86.47863 | 35041 ft | 517 kts | 111° |
| 2026-05-08 01:14 | 27.90493 | -86.40142 | 35046 ft | 517 kts | 111° |
| 2026-05-08 01:14 | 27.88235 | -86.32435 | 35048 ft | 517 kts | 111° |
| 2026-05-08 01:15 | 27.85982 | -86.24713 | 35050 ft | 517 kts | 111° |
| 2026-05-08 01:15 | 27.83721 | -86.17000 | 35047 ft | 517 kts | 111° |
| 2026-05-08 01:16 | 27.81451 | -86.09287 | 35054 ft | 517 kts | 111° |
| 2026-05-08 01:16 | 27.79178 | -86.01593 | 35059 ft | 517 kts | 111° |
| 2026-05-08 01:17 | 27.76906 | -85.93891 | 35055 ft | 516 kts | 111° |
| 2026-05-08 01:17 | 27.74633 | -85.86197 | 35055 ft | 516 kts | 111° |
| 2026-05-08 01:18 | 27.72369 | -85.78556 | 35055 ft | 516 kts | 111° |
| 2026-05-08 01:18 | 27.70065 | -85.70822 | 35058 ft | 516 kts | 111° |
| 2026-05-08 01:19 | 27.67791 | -85.63191 | 35053 ft | 516 kts | 111° |
| 2026-05-08 01:19 | 27.65499 | -85.55521 | 35057 ft | 516 kts | 111° |
| 2026-05-08 01:20 | 27.63199 | -85.47851 | 35058 ft | 516 kts | 111° |
| 2026-05-08 01:20 | 27.60890 | -85.40175 | 35058 ft | 516 kts | 111° |
| 2026-05-08 01:21 | 27.58809 | -85.32426 | 35056 ft | 518 kts | 103° |
| 2026-05-08 01:21 | 27.57444 | -85.24444 | 35058 ft | 519 kts | 103° |
| 2026-05-08 01:22 | 27.56067 | -85.16463 | 35063 ft | 519 kts | 103° |
| 2026-05-08 01:22 | 27.54672 | -85.08499 | 35063 ft | 519 kts | 103° |
| 2026-05-08 01:23 | 27.53265 | -85.00519 | 35060 ft | 519 kts | 103° |
| 2026-05-08 01:23 | 27.51865 | -84.92552 | 35061 ft | 519 kts | 103° |
| 2026-05-08 01:24 | 27.50454 | -84.84580 | 35062 ft | 519 kts | 103° |
| 2026-05-08 01:24 | 27.49034 | -84.76612 | 35064 ft | 519 kts | 103° |
| 2026-05-08 01:25 | 27.47615 | -84.68648 | 35063 ft | 519 kts | 103° |
| 2026-05-08 01:25 | 27.46200 | -84.60672 | 35068 ft | 519 kts | 103° |
| 2026-05-08 01:26 | 27.44788 | -84.52713 | 35070 ft | 518 kts | 103° |
| 2026-05-08 01:26 | 27.43361 | -84.44817 | 35069 ft | 518 kts | 103° |
| 2026-05-08 01:27 | 27.41916 | -84.36874 | 35070 ft | 518 kts | 103° |
| 2026-05-08 01:27 | 27.40479 | -84.28923 | 35069 ft | 518 kts | 103° |
| 2026-05-08 01:28 | 27.39046 | -84.20973 | 35070 ft | 518 kts | 103° |
| 2026-05-08 01:28 | 27.37603 | -84.13031 | 35071 ft | 518 kts | 103° |
| 2026-05-08 01:29 | 27.36393 | -84.06433 | 35071 ft | 518 kts | 103° |
| 2026-05-08 01:29 | 27.34939 | -83.98493 | 35071 ft | 518 kts | 103° |
| 2026-05-08 01:30 | 27.33254 | -83.89281 | 35067 ft | 517 kts | 103° |
| 2026-05-08 01:30 | 27.32032 | -83.82643 | 35075 ft | 517 kts | 103° |
| 2026-05-08 01:31 | 27.30564 | -83.74742 | 35075 ft | 516 kts | 103° |
| 2026-05-08 01:31 | 27.29098 | -83.66899 | 35076 ft | 516 kts | 103° |
| 2026-05-08 01:32 | 27.27626 | -83.59011 | 35074 ft | 515 kts | 103° |
| 2026-05-08 01:32 | 27.26154 | -83.51123 | 35070 ft | 515 kts | 103° |
| 2026-05-08 01:33 | 27.24679 | -83.43250 | 35073 ft | 514 kts | 103° |
| 2026-05-08 01:33 | 27.23202 | -83.35376 | 35074 ft | 514 kts | 103° |
| 2026-05-08 01:34 | 27.21716 | -83.27524 | 35076 ft | 514 kts | 103° |
| 2026-05-08 01:34 | 27.20224 | -83.19676 | 35077 ft | 514 kts | 103° |
| 2026-05-08 01:35 | 27.18735 | -83.11837 | 35072 ft | 513 kts | 103° |
| 2026-05-08 01:35 | 27.17243 | -83.03999 | 35079 ft | 513 kts | 103° |
| 2026-05-08 01:36 | 27.15756 | -82.96228 | 35076 ft | 512 kts | 103° |
| 2026-05-08 01:36 | 27.14253 | -82.88416 | 35076 ft | 512 kts | 105° |
| 2026-05-08 01:37 | 27.11723 | -82.81018 | 35066 ft | 505 kts | 123° |
| 2026-05-08 01:37 | 27.08093 | -82.74390 | 35066 ft | 502 kts | 124° |
| 2026-05-08 01:38 | 27.04425 | -82.67707 | 35065 ft | 502 kts | 124° |
| 2026-05-08 01:38 | 27.00757 | -82.61028 | 35065 ft | 502 kts | 124° |
| 2026-05-08 01:39 | 26.97081 | -82.54356 | 35054 ft | 502 kts | 124° |
| 2026-05-08 01:39 | 26.93412 | -82.47715 | 35044 ft | 500 kts | 126° |
| 2026-05-08 01:40 | 26.88995 | -82.41849 | 34984 ft | 496 kts | 142° |
| 2026-05-08 01:40 | 26.86390 | -82.39335 | 34695 ft | 493 kts | 143° |
| 2026-05-08 01:40 | 26.83786 | -82.36844 | 34458 ft | 492 kts | 143° |
| 2026-05-08 01:40 | 26.81180 | -82.34347 | 34238 ft | 492 kts | 143° |
| 2026-05-08 01:41 | 26.78577 | -82.31854 | 34028 ft | 492 kts | 143° |
| 2026-05-08 01:41 | 26.76006 | -82.29393 | 33759 ft | 493 kts | 143° |
| 2026-05-08 01:41 | 26.73396 | -82.26894 | 33479 ft | 494 kts | 143° |
| 2026-05-08 01:41 | 26.70792 | -82.24400 | 33085 ft | 494 kts | 143° |
| 2026-05-08 01:42 | 26.68176 | -82.21897 | 32531 ft | 496 kts | 143° |
| 2026-05-08 01:42 | 26.65540 | -82.19377 | 31775 ft | 498 kts | 143° |
| 2026-05-08 01:42 | 26.62910 | -82.16865 | 31085 ft | 499 kts | 143° |
| 2026-05-08 01:42 | 26.60273 | -82.14348 | 30506 ft | 498 kts | 143° |
| 2026-05-08 01:43 | 26.57659 | -82.11851 | 29880 ft | 497 kts | 143° |
| 2026-05-08 01:43 | 26.55058 | -82.09364 | 29266 ft | 489 kts | 143° |
| 2026-05-08 01:43 | 26.52504 | -82.06922 | 28738 ft | 478 kts | 143° |
| 2026-05-08 01:43 | 26.50050 | -82.04524 | 28201 ft | 470 kts | 142° |
| 2026-05-08 01:44 | 26.47646 | -82.02111 | 27683 ft | 463 kts | 141° |
| 2026-05-08 01:44 | 26.45273 | -81.99691 | 27153 ft | 461 kts | 141° |
| 2026-05-08 01:44 | 26.42920 | -81.97278 | 26643 ft | 458 kts | 141° |
| 2026-05-08 01:44 | 26.40581 | -81.94889 | 26134 ft | 455 kts | 141° |
| 2026-05-08 01:45 | 26.38241 | -81.92520 | 25631 ft | 452 kts | 141° |
| 2026-05-08 01:45 | 26.35915 | -81.90182 | 25149 ft | 449 kts | 141° |
| 2026-05-08 01:45 | 26.33593 | -81.87857 | 24664 ft | 447 kts | 141° |
| 2026-05-08 01:45 | 26.31289 | -81.85553 | 24193 ft | 444 kts | 141° |
| 2026-05-08 01:46 | 26.28991 | -81.83251 | 23729 ft | 442 kts | 141° |
| 2026-05-08 01:46 | 26.26706 | -81.80960 | 23221 ft | 440 kts | 141° |
| 2026-05-08 01:46 | 26.24536 | -81.78572 | 22780 ft | 439 kts | 132° |
| 2026-05-08 01:46 | 26.22820 | -81.75833 | 22402 ft | 437 kts | 120° |
| 2026-05-08 01:47 | 26.21461 | -81.72812 | 21912 ft | 435 kts | 117° |
| 2026-05-08 01:47 | 26.20152 | -81.69793 | 21451 ft | 432 kts | 117° |
| 2026-05-08 01:47 | 26.18864 | -81.66819 | 20945 ft | 423 kts | 116° |
| 2026-05-08 01:48 | 26.16344 | -81.61005 | 20027 ft | 413 kts | 116° |
| 2026-05-08 01:48 | 26.15101 | -81.58138 | 19555 ft | 411 kts | 116° |
| 2026-05-08 01:48 | 26.13858 | -81.55279 | 19073 ft | 409 kts | 116° |
| 2026-05-08 01:48 | 26.12624 | -81.52446 | 18592 ft | 404 kts | 116° |
| 2026-05-08 01:49 | 26.11404 | -81.49650 | 18073 ft | 400 kts | 116° |
| 2026-05-08 01:49 | 26.10198 | -81.46890 | 17571 ft | 394 kts | 116° |
| 2026-05-08 01:49 | 26.09005 | -81.44171 | 17099 ft | 389 kts | 116° |
| 2026-05-08 01:49 | 26.07818 | -81.41473 | 16627 ft | 387 kts | 116° |
| 2026-05-08 01:50 | 26.06651 | -81.38812 | 16169 ft | 379 kts | 116° |
| 2026-05-08 01:50 | 26.05506 | -81.36188 | 15714 ft | 375 kts | 116° |
| 2026-05-08 01:50 | 26.04373 | -81.33584 | 15245 ft | 372 kts | 116° |
| 2026-05-08 01:50 | 26.03249 | -81.31002 | 14809 ft | 370 kts | 116° |
| 2026-05-08 01:51 | 26.02134 | -81.28435 | 14360 ft | 367 kts | 116° |
| 2026-05-08 01:51 | 26.01029 | -81.25897 | 13909 ft | 361 kts | 116° |
| 2026-05-08 01:51 | 25.99959 | -81.23441 | 13437 ft | 355 kts | 116° |
| 2026-05-08 01:51 | 25.98891 | -81.20990 | 13003 ft | 350 kts | 117° |
| 2026-05-08 01:52 | 25.97834 | -81.18569 | 12569 ft | 347 kts | 117° |
| 2026-05-08 01:52 | 25.96786 | -81.16172 | 12139 ft | 344 kts | 117° |
| 2026-05-08 01:52 | 25.95745 | -81.13792 | 11716 ft | 340 kts | 116° |
| 2026-05-08 01:52 | 25.94717 | -81.11446 | 11301 ft | 338 kts | 117° |
| 2026-05-08 01:53 | 25.93689 | -81.09104 | 10873 ft | 335 kts | 117° |
| 2026-05-08 01:53 | 25.92670 | -81.06785 | 10472 ft | 332 kts | 117° |
| 2026-05-08 01:53 | 25.91678 | -81.04520 | 10332 ft | 320 kts | 116° |
| 2026-05-08 01:53 | 25.90742 | -81.02320 | 10214 ft | 309 kts | 115° |
| 2026-05-08 01:54 | 25.89898 | -81.00171 | 10047 ft | 300 kts | 114° |
| 2026-05-08 01:54 | 25.89104 | -80.98067 | 9855 ft | 294 kts | 113° |
| 2026-05-08 01:54 | 25.88320 | -80.95967 | 9476 ft | 293 kts | 113° |
| 2026-05-08 01:54 | 25.87539 | -80.93886 | 9116 ft | 291 kts | 113° |
| 2026-05-08 01:55 | 25.86757 | -80.91821 | 8810 ft | 289 kts | 113° |
| 2026-05-08 01:55 | 25.85982 | -80.89784 | 8567 ft | 290 kts | 113° |
| 2026-05-08 01:55 | 25.85182 | -80.87696 | 8307 ft | 290 kts | 114° |
| 2026-05-08 01:55 | 25.84436 | -80.85755 | 8065 ft | 289 kts | 114° |
| 2026-05-08 01:56 | 25.83624 | -80.83644 | 7770 ft | 289 kts | 114° |
| 2026-05-08 01:56 | 25.82833 | -80.81592 | 7469 ft | 288 kts | 113° |
| 2026-05-08 01:56 | 25.82049 | -80.79558 | 7179 ft | 287 kts | 114° |
| 2026-05-08 01:56 | 25.81264 | -80.77520 | 6878 ft | 286 kts | 113° |
| 2026-05-08 01:57 | 25.80483 | -80.75494 | 6603 ft | 285 kts | 113° |
| 2026-05-08 01:57 | 25.79705 | -80.73476 | 6302 ft | 285 kts | 113° |
| 2026-05-08 01:57 | 25.78927 | -80.71460 | 5998 ft | 283 kts | 113° |
| 2026-05-08 01:57 | 25.78154 | -80.69460 | 5711 ft | 281 kts | 113° |
| 2026-05-08 01:58 | 25.77440 | -80.67455 | 5420 ft | 278 kts | 105° |
| 2026-05-08 01:58 | 25.77152 | -80.65358 | 5130 ft | 273 kts | 90° |
| 2026-05-08 01:58 | 25.77239 | -80.63266 | 4844 ft | 270 kts | 85° |
| 2026-05-08 01:58 | 25.77339 | -80.61202 | 4550 ft | 267 kts | 86° |
| 2026-05-08 01:59 | 25.77433 | -80.59157 | 4263 ft | 264 kts | 86° |
| 2026-05-08 01:59 | 25.77520 | -80.57151 | 4019 ft | 259 kts | 87° |
| 2026-05-08 01:59 | 25.77599 | -80.55172 | 3774 ft | 253 kts | 86° |
| 2026-05-08 01:59 | 25.77681 | -80.53259 | 3526 ft | 244 kts | 86° |
| 2026-05-08 02:00 | 25.77759 | -80.51448 | 3328 ft | 234 kts | 86° |
| 2026-05-08 02:00 | 25.77835 | -80.49684 | 3132 ft | 225 kts | 86° |
| 2026-05-08 02:00 | 25.77911 | -80.47946 | 2863 ft | 225 kts | 86° |
| 2026-05-08 02:00 | 25.77985 | -80.46215 | 2599 ft | 217 kts | 88° |
| 2026-05-08 02:01 | 25.78054 | -80.44612 | 2316 ft | 206 kts | 88° |
| 2026-05-08 02:01 | 25.78119 | -80.43079 | 2062 ft | 192 kts | 88° |
| 2026-05-08 02:01 | 25.78180 | -80.41656 | 1835 ft | 176 kts | 88° |
| 2026-05-08 02:01 | 25.78236 | -80.40335 | 1627 ft | 167 kts | 89° |
| 2026-05-08 02:02 | 25.78290 | -80.39071 | 1396 ft | 162 kts | 88° |
| 2026-05-08 02:02 | 25.78342 | -80.37830 | 1189 ft | 160 kts | 88° |
| 2026-05-08 02:02 | 25.78394 | -80.36600 | 979 ft | 158 kts | 89° |
| 2026-05-08 02:02 | 25.78455 | -80.35385 | 783 ft | 157 kts | 90° |
| 2026-05-08 02:03 | 25.78504 | -80.34189 | 602 ft | 154 kts | 90° |
| 2026-05-08 02:03 | 25.78552 | -80.33019 | 404 ft | 151 kts | 88° |
| 2026-05-08 02:03 | 25.78598 | -80.31864 | 194 ft | 148 kts | 88° |
| 2026-05-08 02:03 | 25.78645 | -80.30722 | 27 ft | 143 kts | 89° |
| 2026-05-08 02:04 | 25.78684 | -80.29750 | 18 ft | 104 kts | 87° |
| 2026-05-08 02:04 | 25.78705 | -80.29259 | 19 ft | 35 kts | 87° |
| 2026-05-08 02:04 | 25.78717 | -80.28997 | 17 ft | 32 kts | 87° |
| 2026-05-08 02:04 | 25.78734 | -80.28823 | 18 ft | 21 kts | 77° |
| 2026-05-08 02:05 | 25.78809 | -80.28688 | 16 ft | 21 kts | 40° |
| 2026-05-08 02:05 | 25.78926 | -80.28676 | 15 ft | 18 kts | 353° |
| 2026-05-08 02:05 | 25.79051 | -80.28687 | 15 ft | 18 kts | 357° |
| 2026-05-08 02:05 | 25.79178 | -80.28694 | 15 ft | 19 kts | 357° |
| 2026-05-08 02:06 | 25.79285 | -80.28700 | 14 ft | 14 kts | 357° |
| 2026-05-08 02:06 | 25.79364 | -80.28711 | 14 ft | 10 kts | 334° |
| 2026-05-08 02:06 | 25.79403 | -80.28773 | 15 ft | 10 kts | 301° |
| 2026-05-08 02:06 | 25.79463 | -80.28800 | 17 ft | 9 kts | 356° |
| 2026-05-08 02:07 | 25.79521 | -80.28803 | 19 ft | 9 kts | 357° |
| 2026-05-08 02:07 | 25.79595 | -80.28806 | 20 ft | 12 kts | 358° |
| 2026-05-08 02:07 | 25.79679 | -80.28811 | 20 ft | 13 kts | 357° |
| 2026-05-08 02:07 | 25.79770 | -80.28815 | 20 ft | 14 kts | 358° |
| 2026-05-08 02:08 | 25.79868 | -80.28820 | 21 ft | 12 kts | 358° |
| 2026-05-08 02:08 | 25.79932 | -80.28788 | 22 ft | 11 kts | 67° |
| 2026-05-08 02:08 | 25.79938 | -80.28700 | 21 ft | 12 kts | 88° |
| 2026-05-08 02:08 | 25.79942 | -80.28593 | 19 ft | 15 kts | 87° |
| 2026-05-08 02:09 | 25.79947 | -80.28463 | 16 ft | 18 kts | 87° |
| 2026-05-08 02:09 | 25.79954 | -80.28315 | 15 ft | 20 kts | 87° |
| 2026-05-08 02:09 | 25.79960 | -80.28158 | 14 ft | 21 kts | 87° |
| 2026-05-08 02:09 | 25.79967 | -80.27988 | 12 ft | 23 kts | 87° |
| 2026-05-08 02:10 | 25.79974 | -80.27824 | 15 ft | 19 kts | 87° |
| 2026-05-08 02:10 | 25.79980 | -80.27694 | 17 ft | 15 kts | 87° |
| 2026-05-08 02:10 | 25.79984 | -80.27582 | 17 ft | 14 kts | 88° |
| 2026-05-08 02:10 | 25.79988 | -80.27473 | 18 ft | 14 kts | 88° |
| 2026-05-08 02:11 | 25.79992 | -80.27371 | 20 ft | 13 kts | 88° |
| 2026-05-08 02:11 | 25.79997 | -80.27273 | 23 ft | 13 kts | 87° |
| 2026-05-08 02:11 | 25.80000 | -80.27170 | 23 ft | 14 kts | 88° |
| 2026-05-08 02:11 | 25.79970 | -80.27075 | 21 ft | 13 kts | 129° |
| 2026-05-08 02:12 | 25.79918 | -80.27004 | 23 ft | 10 kts | 138° |
| 2026-05-08 02:12 | 25.79860 | -80.26998 | 22 ft | 8 kts | 199° |
| 2026-05-08 02:12 | 25.79814 | -80.27030 | 22 ft | 8 kts | 218° |
| 2026-05-08 02:12 | 25.79768 | -80.27076 | 23 ft | 10 kts | 223° |
| 2026-05-08 02:13 | 25.79734 | -80.27141 | 20 ft | 10 kts | 265° |
| 2026-05-08 02:13 | 25.79732 | -80.27215 | 20 ft | 9 kts | 275° |
| 2026-05-08 02:13 | 25.79769 | -80.27243 | 19 ft | 3 kts | 352° |
| 2026-05-08 02:13 | 25.79783 | -80.27243 | 20 ft | 1 kts | 359° |
| 2026-05-08 02:14 | 25.79786 | -80.27244 | 20 ft | 1 kts | 359° |
| 2026-05-08 02:14 | 25.79790 | -80.27244 | 20 ft | 0 kts | 359° |